Amelia, Virginia
Current Conditions -  °F | °C
As of 9:35 AM on Thursday 30 Oct 2014 (Local Time) from KW81 Reporting Station
Clear Clear  
Wind Chill: 10°   Ceiling: Unl
Heat Index: 10°   Visibility: 10mi
Dew Point:   Wind: 3mph
Humidity: 90%   Direction: 10°N
Pressure: 30.07"   Gusts: NA
Location:  37.3498°N, 77.9661°W
Report Text: KW81 301335Z AUTO 01003KT 10SM CLR 10/09 A3007 RMK AO1 T01010086
Loading
Personal Weather Stations






























Interactive Weather Map
Tropical Storm Tracking
New forecast layout! Learn more

10-Day Weather Forecast

Advertisements
Track Severe Weather on mobile